createdAt,value
2022-12-03T00:00:46.132Z,22.10
2022-12-03T00:03:14.575Z,21.73
2022-12-03T00:05:48.882Z,17.27
2022-12-03T00:08:21.167Z,18.12
2022-12-03T00:10:49.005Z,18.52
2022-12-03T00:13:16.852Z,23.27
2022-12-03T00:15:45.252Z,24.05
2022-12-03T00:18:13.190Z,19.25
2022-12-03T00:20:41.049Z,24.52
2022-12-03T00:23:09.278Z,25.12
2022-12-03T00:25:37.031Z,22.80
2022-12-03T00:28:05.055Z,23.00
2022-12-03T00:30:33.313Z,18.20
2022-12-03T00:33:01.348Z,21.00
2022-12-03T00:35:29.218Z,25.55
2022-12-03T00:37:57.449Z,23.85
2022-12-03T00:40:25.316Z,21.42
2022-12-03T00:42:53.105Z,26.87
2022-12-03T00:45:21.248Z,23.95
2022-12-03T00:47:48.916Z,19.98
2022-12-03T00:50:16.827Z,17.10
2022-12-03T00:52:45.030Z,23.65
2022-12-03T00:55:12.847Z,19.73
2022-12-03T00:57:40.727Z,27.85
2022-12-03T01:00:10.243Z,23.65
2022-12-03T01:02:38.070Z,18.15
2022-12-03T01:05:06.943Z,18.92
2022-12-03T01:07:36.584Z,18.17
2022-12-03T01:10:05.960Z,23.05
2022-12-03T01:12:33.562Z,23.02
2022-12-03T01:15:05.696Z,23.67
2022-12-03T01:17:33.497Z,24.13
2022-12-03T01:20:12.047Z,20.80
2022-12-03T01:22:39.788Z,23.00
2022-12-03T01:25:08.272Z,22.37
2022-12-03T01:27:35.997Z,22.13
2022-12-03T01:30:05.329Z,19.75
2022-12-03T01:32:33.457Z,26.50
2022-12-03T01:35:01.543Z,18.12
2022-12-03T01:37:31.718Z,22.62
2022-12-03T01:39:59.864Z,26.92
2022-12-03T01:42:32.015Z,22.85
2022-12-03T01:45:01.724Z,12.52
2022-12-03T01:47:37.186Z,21.33
2022-12-03T01:50:14.878Z,25.55
2022-12-03T01:52:43.043Z,24.35
2022-12-03T01:55:18.554Z,25.42
2022-12-03T01:57:53.154Z,25.25
2022-12-03T02:00:24.152Z,28.83
2022-12-03T02:02:55.701Z,26.50
2022-12-03T02:05:32.767Z,25.52
2022-12-03T02:08:01.261Z,22.42
2022-12-03T02:10:35.170Z,20.98
2022-12-03T02:13:08.068Z,21.40
2022-12-03T02:15:40.420Z,16.48
2022-12-03T02:18:09.401Z,14.10
2022-12-03T02:20:47.409Z,19.12
2022-12-03T02:23:36.773Z,22.85
2022-12-03T02:26:05.115Z,20.05
2022-12-03T02:28:33.205Z,16.80
2022-12-03T02:31:01.165Z,22.52
2022-12-03T02:33:33.049Z,23.15
2022-12-03T02:36:03.782Z,20.25
2022-12-03T02:38:35.626Z,15.68
2022-12-03T02:41:09.737Z,16.65
2022-12-03T02:43:38.879Z,27.17
2022-12-03T02:46:08.572Z,21.60
2022-12-03T02:48:39.106Z,20.37
2022-12-03T02:51:10.923Z,21.00
2022-12-03T02:53:45.839Z,20.85
2022-12-03T02:56:24.781Z,22.52
2022-12-03T02:58:55.394Z,20.48
2022-12-03T03:01:23.898Z,20.88
2022-12-03T03:03:53.132Z,21.35
2022-12-03T03:06:21.757Z,18.08
2022-12-03T03:08:50.299Z,23.30
2022-12-03T03:11:18.070Z,17.60
2022-12-03T03:13:48.767Z,15.57
2022-12-03T03:16:17.065Z,21.08
2022-12-03T03:18:45.144Z,18.77
2022-12-03T03:21:13.512Z,21.12
2022-12-03T03:23:41.679Z,21.35
2022-12-03T03:26:14.852Z,21.83
2022-12-03T03:28:46.673Z,15.63
2022-12-03T03:31:18.366Z,18.65
2022-12-03T03:33:48.547Z,15.00
2022-12-03T03:36:17.143Z,21.67
2022-12-03T03:38:48.191Z,21.75
2022-12-03T03:41:17.142Z,21.15
2022-12-03T03:43:46.513Z,13.32
2022-12-03T03:46:14.915Z,16.65
2022-12-03T03:48:44.145Z,18.27
2022-12-03T03:51:13.517Z,13.60
2022-12-03T03:53:44.709Z,18.45
2022-12-03T03:56:13.138Z,18.23
2022-12-03T03:58:41.204Z,17.15
2022-12-03T04:01:09.888Z,16.77
2022-12-03T04:03:38.177Z,18.40
2022-12-03T04:06:06.643Z,23.00
2022-12-03T04:08:34.482Z,17.42
2022-12-03T04:11:21.541Z,18.15
2022-12-03T04:13:50.562Z,19.37
2022-12-03T04:16:18.738Z,25.95
2022-12-03T04:18:47.906Z,19.85
2022-12-03T04:21:37.254Z,23.15
2022-12-03T04:24:10.388Z,21.33
2022-12-03T04:29:24.966Z,17.83
2022-12-03T04:32:10.965Z,18.90
2022-12-03T04:34:57.696Z,17.75
2022-12-03T04:37:25.496Z,19.08
2022-12-03T04:39:53.770Z,22.92
2022-12-03T04:42:21.842Z,19.77
2022-12-03T04:44:50.456Z,16.50
2022-12-03T04:47:20.931Z,21.67
2022-12-03T04:49:50.868Z,19.12
2022-12-03T04:52:20.258Z,29.52
2022-12-03T04:54:48.184Z,23.23
2022-12-03T04:57:16.135Z,20.67
2022-12-03T04:59:47.143Z,22.25
2022-12-03T05:02:14.937Z,24.02
2022-12-03T05:04:42.743Z,26.23
2022-12-03T05:07:11.675Z,28.80
2022-12-03T05:09:42.539Z,24.55
2022-12-03T05:12:10.608Z,29.02
2022-12-03T05:14:38.710Z,21.80
2022-12-03T05:17:06.717Z,29.52
2022-12-03T05:19:57.520Z,22.13
2022-12-03T05:22:25.714Z,16.92
2022-12-03T05:24:53.719Z,24.50
2022-12-03T05:27:24.567Z,16.02
2022-12-03T05:29:53.222Z,22.62
2022-12-03T05:32:21.264Z,24.87
2022-12-03T05:34:49.127Z,27.33
2022-12-03T05:37:17.388Z,23.10
2022-12-03T05:39:45.336Z,20.23
2022-12-03T05:42:31.464Z,28.27
2022-12-03T05:44:59.634Z,26.65
2022-12-03T05:47:27.505Z,26.98
2022-12-03T05:49:55.380Z,27.52
2022-12-03T05:52:23.636Z,19.23
2022-12-03T05:54:54.766Z,24.75
2022-12-03T05:57:23.096Z,26.10
2022-12-03T05:59:51.022Z,27.65
2022-12-03T06:02:18.921Z,30.85
2022-12-03T06:04:47.027Z,26.42
2022-12-03T06:07:17.967Z,23.12
2022-12-03T06:09:45.758Z,32.03
2022-12-03T06:12:14.068Z,27.70
2022-12-03T06:14:42.091Z,32.05
2022-12-03T06:17:09.888Z,31.98
2022-12-03T06:19:38.315Z,35.00
2022-12-03T06:22:06.157Z,32.50
2022-12-03T06:24:33.882Z,26.45
2022-12-03T06:27:02.061Z,26.80
2022-12-03T06:29:30.021Z,32.90
2022-12-03T06:31:57.843Z,25.42
2022-12-03T06:34:25.876Z,33.83
2022-12-03T06:36:53.756Z,34.83
2022-12-03T06:39:22.220Z,39.63
2022-12-03T06:41:50.463Z,24.33
2022-12-03T06:44:18.339Z,32.55
2022-12-03T06:46:46.416Z,26.67
2022-12-03T06:49:14.613Z,27.27
2022-12-03T06:51:42.391Z,27.67
2022-12-03T06:54:10.209Z,26.98
2022-12-03T06:56:44.893Z,30.80
2022-12-03T06:59:16.963Z,25.80
2022-12-03T07:01:45.315Z,36.72
2022-12-03T07:04:13.156Z,30.33
2022-12-03T07:06:41.010Z,34.72
2022-12-03T07:09:09.078Z,27.83
2022-12-03T07:11:40.809Z,30.25
2022-12-03T07:14:11.737Z,19.35
2022-12-03T07:16:40.468Z,33.90
2022-12-03T07:19:08.454Z,34.53
2022-12-03T07:21:36.596Z,29.35
2022-12-03T07:24:04.549Z,24.35
2022-12-03T07:26:32.380Z,32.10
2022-12-03T07:29:04.301Z,34.45
2022-12-03T07:31:32.219Z,29.00
2022-12-03T07:34:01.675Z,25.62
2022-12-03T07:36:32.593Z,38.85
2022-12-03T07:39:00.776Z,33.78
2022-12-03T07:41:28.529Z,25.65
2022-12-03T07:43:56.812Z,33.80
2022-12-03T07:46:25.171Z,35.28
2022-12-03T07:48:53.002Z,30.75
2022-12-03T07:51:20.963Z,36.22
2022-12-03T07:53:49.104Z,29.17
2022-12-03T07:56:17.008Z,38.63
2022-12-03T07:58:48.142Z,43.47
2022-12-03T08:01:16.240Z,34.20
2022-12-03T08:03:44.615Z,29.42
2022-12-03T08:06:12.412Z,40.47
2022-12-03T08:08:44.013Z,37.88
2022-12-03T08:11:16.860Z,31.85
2022-12-03T08:13:47.896Z,34.58
2022-12-03T08:16:21.913Z,32.72
2022-12-03T08:18:51.159Z,34.38
2022-12-03T08:21:21.852Z,40.10
2022-12-03T08:23:49.852Z,32.97
2022-12-03T08:26:25.471Z,35.25
2022-12-03T08:28:54.279Z,37.03
2022-12-03T08:31:33.536Z,23.35
2022-12-03T08:34:18.424Z,34.17
2022-12-03T08:36:47.885Z,31.90
2022-12-03T08:39:34.272Z,30.42
2022-12-03T08:42:39.190Z,26.12
2022-12-03T08:45:29.530Z,31.83
2022-12-03T08:48:04.215Z,25.67
2022-12-03T08:50:43.942Z,29.05
2022-12-03T08:53:14.656Z,22.77
2022-12-03T08:55:53.717Z,38.30
2022-12-03T08:58:33.673Z,22.87
2022-12-03T09:01:11.248Z,33.20
2022-12-03T09:03:47.068Z,18.95
2022-12-03T09:06:15.262Z,24.90
2022-12-03T09:08:43.448Z,31.67
2022-12-03T09:11:11.430Z,25.67
2022-12-03T09:13:39.793Z,26.70
2022-12-03T09:16:07.978Z,25.80
2022-12-03T09:18:38.912Z,33.22
2022-12-03T09:21:07.652Z,29.92
2022-12-03T09:23:35.685Z,33.83
2022-12-03T09:26:03.461Z,21.92
2022-12-03T09:28:37.670Z,31.25
2022-12-03T09:31:05.579Z,26.95
2022-12-03T09:33:36.913Z,25.80
2022-12-03T09:36:05.126Z,27.92
2022-12-03T09:38:33.533Z,24.35
2022-12-03T09:41:01.469Z,27.65
2022-12-03T09:44:02.856Z,23.50
2022-12-03T09:46:23.402Z,20.62
2022-12-03T09:48:51.640Z,30.75
2022-12-03T09:51:20.432Z,27.90
2022-12-03T09:53:49.896Z,25.02
2022-12-03T09:56:23.642Z,23.17
2022-12-03T09:58:51.992Z,25.67
2022-12-03T10:01:22.433Z,25.42
2022-12-03T10:03:53.873Z,27.33
2022-12-03T10:06:25.024Z,24.12
2022-12-03T10:08:56.514Z,23.40
2022-12-03T10:11:26.131Z,22.13
2022-12-03T10:13:58.930Z,25.52
2022-12-03T10:16:30.460Z,23.23
2022-12-03T10:19:01.212Z,20.40
2022-12-03T10:21:38.312Z,22.15
2022-12-03T10:24:22.076Z,26.77
2022-12-03T10:26:52.212Z,22.52
2022-12-03T10:29:33.615Z,22.80
2022-12-03T10:32:09.599Z,24.80
2022-12-03T10:34:40.696Z,23.62
2022-12-03T10:37:20.577Z,20.80
2022-12-03T10:39:58.054Z,25.80
2022-12-03T10:42:31.746Z,22.35
2022-12-03T10:45:13.010Z,16.45
2022-12-03T10:47:41.382Z,21.65
2022-12-03T10:50:20.554Z,18.25
2022-12-03T10:52:48.557Z,20.95
2022-12-03T10:55:16.946Z,16.33
2022-12-03T10:57:48.568Z,18.83
2022-12-03T11:00:19.677Z,16.45
2022-12-03T11:02:56.773Z,16.62
2022-12-03T11:05:28.662Z,18.90
2022-12-03T11:07:57.342Z,15.45
2022-12-03T11:10:25.632Z,16.15
2022-12-03T11:13:30.794Z,14.65
2022-12-03T11:15:59.909Z,12.75
2022-12-03T11:18:37.238Z,16.00
2022-12-03T11:21:11.834Z,18.30
2022-12-03T11:23:46.323Z,12.23
2022-12-03T11:26:29.458Z,16.60
2022-12-03T11:28:59.007Z,13.55
2022-12-03T11:31:45.442Z,15.80
2022-12-03T11:34:22.954Z,16.67
2022-12-03T11:37:12.596Z,17.40
2022-12-03T11:39:53.349Z,16.50
2022-12-03T11:42:27.679Z,12.10
2022-12-03T11:45:05.697Z,13.57
2022-12-03T11:47:42.601Z,12.60
2022-12-03T11:50:36.128Z,11.82
2022-12-03T11:53:27.255Z,14.80
2022-12-03T11:56:09.321Z,14.70
2022-12-03T11:58:39.900Z,14.98
2022-12-03T12:01:08.821Z,14.85
2022-12-03T12:03:49.629Z,13.10
2022-12-03T12:06:20.800Z,10.85
2022-12-03T12:08:51.793Z,14.00
2022-12-03T12:11:34.382Z,15.57
2022-12-03T12:14:06.246Z,17.15
2022-12-03T12:16:51.670Z,18.17
2022-12-03T12:19:31.951Z,14.07
2022-12-03T12:22:27.463Z,16.02
2022-12-03T12:24:58.085Z,15.75
2022-12-03T12:27:51.317Z,14.90
2022-12-03T12:30:22.061Z,16.67
2022-12-03T12:32:58.088Z,19.23
2022-12-03T12:35:28.455Z,14.80
2022-12-03T12:38:11.074Z,17.30
2022-12-03T12:40:41.105Z,22.55
2022-12-03T12:43:14.412Z,23.27
2022-12-03T12:45:45.827Z,16.98
2022-12-03T12:48:13.661Z,20.02
2022-12-03T12:50:47.361Z,17.98
2022-12-03T12:53:26.601Z,20.37
2022-12-03T12:56:01.923Z,13.90
2022-12-03T12:58:33.668Z,17.40
2022-12-03T13:01:12.243Z,21.80
2022-12-03T13:03:43.789Z,20.02
2022-12-03T13:06:16.303Z,18.25
2022-12-03T13:11:45.974Z,16.60
2022-12-03T13:14:22.630Z,13.48
2022-12-03T13:16:57.160Z,15.57
2022-12-03T13:19:27.630Z,17.27
2022-12-03T13:22:01.901Z,21.12
2022-12-03T13:24:33.423Z,15.88
2022-12-03T13:27:26.027Z,16.20
2022-12-03T13:30:07.716Z,20.33
2022-12-03T13:32:38.220Z,19.70
2022-12-03T13:35:26.593Z,16.37
2022-12-03T13:37:59.353Z,18.17
2022-12-03T13:40:35.243Z,17.40
2022-12-03T13:43:16.094Z,20.50
2022-12-03T13:45:47.466Z,18.23
2022-12-03T13:48:36.041Z,20.30
2022-12-03T13:51:30.187Z,23.55
2022-12-03T13:53:59.612Z,16.45
2022-12-03T13:56:33.334Z,20.25
2022-12-03T13:59:04.708Z,18.33
2022-12-03T14:01:33.025Z,19.50
2022-12-03T14:04:01.761Z,9.68
2022-12-03T14:06:29.731Z,24.60
2022-12-03T14:08:57.673Z,23.67
2022-12-03T14:11:47.220Z,21.90
2022-12-03T14:14:15.127Z,21.65
2022-12-03T14:16:43.614Z,26.35
2022-12-03T14:19:12.049Z,12.50
2022-12-03T14:21:40.275Z,13.18
2022-12-03T14:24:08.671Z,15.73
2022-12-03T14:26:38.812Z,16.40
2022-12-03T14:29:08.955Z,21.37
2022-12-03T14:31:37.481Z,6.22
2022-12-03T14:34:05.319Z,15.85
2022-12-03T14:36:32.958Z,15.52
2022-12-03T14:39:01.093Z,19.87
2022-12-03T14:41:47.341Z,17.58
2022-12-03T14:44:18.485Z,16.87
2022-12-03T14:46:46.368Z,14.52
2022-12-03T14:49:14.729Z,10.20
2022-12-03T14:51:43.053Z,17.67
2022-12-03T14:54:11.126Z,12.48
2022-12-03T14:56:39.016Z,11.80
2022-12-03T14:59:07.206Z,17.55
2022-12-03T15:01:35.197Z,8.07
2022-12-03T15:04:03.452Z,17.42
2022-12-03T15:06:34.641Z,11.18
2022-12-03T15:09:02.935Z,9.73
2022-12-03T15:11:31.186Z,11.43
2022-12-03T15:13:59.033Z,10.52
2022-12-03T15:16:27.042Z,11.32
2022-12-03T15:18:55.396Z,6.60
2022-12-03T15:21:25.781Z,16.23
2022-12-03T15:23:53.469Z,5.55
2022-12-03T15:26:24.651Z,13.18
2022-12-03T15:28:52.735Z,12.00
2022-12-03T15:31:20.984Z,10.88
2022-12-03T15:33:49.481Z,9.63
2022-12-03T15:36:17.422Z,6.75
2022-12-03T15:38:45.300Z,8.68
2022-12-03T15:41:29.419Z,8.02
2022-12-03T15:43:59.498Z,10.93
2022-12-03T15:46:28.285Z,11.15
2022-12-03T15:48:56.598Z,9.80
2022-12-03T15:51:25.158Z,12.55
2022-12-03T15:53:53.606Z,3.83
2022-12-03T15:56:21.513Z,14.05
2022-12-03T15:58:49.314Z,13.38
2022-12-03T16:01:20.487Z,8.10
2022-12-03T16:03:48.899Z,9.63
2022-12-03T16:06:18.482Z,9.40
2022-12-03T16:08:47.039Z,12.37
2022-12-03T16:11:15.342Z,13.73
2022-12-03T16:13:46.509Z,7.50
2022-12-03T16:16:14.991Z,10.25
2022-12-03T16:18:43.920Z,18.58
2022-12-03T16:21:20.821Z,15.13
2022-12-03T16:23:53.717Z,14.40
2022-12-03T16:26:22.224Z,12.77
2022-12-03T16:28:50.310Z,18.00
2022-12-03T16:31:22.041Z,20.88
2022-12-03T16:33:50.170Z,18.60
2022-12-03T16:36:18.463Z,18.65
2022-12-03T16:38:46.542Z,13.82
2022-12-03T16:41:17.665Z,11.15
2022-12-03T16:43:48.696Z,18.47
2022-12-03T16:46:19.451Z,15.80
2022-12-03T16:48:56.648Z,10.13
2022-12-03T16:51:27.879Z,14.05
2022-12-03T16:53:56.119Z,10.02
2022-12-03T16:56:23.996Z,16.85
2022-12-03T16:58:51.975Z,18.85
2022-12-03T17:01:23.712Z,21.48
2022-12-03T17:03:51.682Z,18.08
2022-12-03T17:06:19.979Z,19.40
2022-12-03T17:08:50.052Z,17.08
2022-12-03T17:11:18.619Z,15.45
2022-12-03T17:13:46.547Z,22.87
2022-12-03T17:16:15.016Z,19.52
2022-12-03T17:18:43.197Z,24.05
2022-12-03T17:21:11.195Z,20.02
2022-12-03T17:23:39.582Z,23.65
2022-12-03T17:26:11.277Z,19.62
2022-12-03T17:28:39.583Z,15.38
2022-12-03T17:31:07.518Z,13.52
2022-12-03T17:33:35.448Z,19.27
2022-12-03T17:36:04.298Z,16.92
2022-12-03T17:38:38.638Z,17.95
2022-12-03T17:41:28.181Z,18.45
2022-12-03T17:44:33.377Z,19.00
2022-12-03T17:47:14.657Z,13.90
2022-12-03T17:49:49.860Z,21.48
2022-12-03T17:52:33.386Z,19.48
2022-12-03T17:55:13.193Z,23.05
2022-12-03T17:57:53.697Z,18.20
2022-12-03T18:00:34.295Z,18.50
2022-12-03T18:03:13.438Z,19.63
2022-12-03T18:05:47.329Z,12.50
2022-12-03T18:08:27.731Z,11.32
2022-12-03T18:11:03.721Z,17.95
2022-12-03T18:13:41.045Z,14.18
2022-12-03T18:16:19.261Z,13.38
2022-12-03T18:19:04.642Z,22.50
2022-12-03T18:21:40.198Z,15.85
2022-12-03T18:24:23.429Z,14.65
2022-12-03T18:27:05.458Z,13.20
2022-12-03T18:29:44.549Z,11.75
2022-12-03T18:32:29.203Z,13.00
2022-12-03T18:35:08.964Z,12.52
2022-12-03T18:37:47.851Z,10.68
2022-12-03T18:40:31.112Z,11.45
2022-12-03T18:43:13.600Z,12.43
2022-12-03T18:45:56.655Z,18.02
2022-12-03T18:48:33.683Z,9.65
2022-12-03T18:51:30.101Z,13.57
2022-12-03T18:54:14.895Z,13.13
2022-12-03T18:56:54.618Z,10.93
2022-12-03T18:59:34.760Z,14.77
2022-12-03T19:03:00.671Z,11.88
2022-12-03T19:05:29.939Z,15.57
2022-12-03T19:08:19.603Z,11.27
2022-12-03T19:11:06.746Z,15.30
2022-12-03T19:13:49.239Z,9.73
2022-12-03T19:16:25.249Z,11.68
2022-12-03T19:19:02.776Z,10.25
2022-12-03T19:21:41.307Z,12.48
2022-12-03T19:24:26.573Z,13.25
2022-12-03T19:27:03.408Z,14.57
2022-12-03T19:29:41.617Z,10.68
2022-12-03T19:32:17.578Z,9.38
2022-12-03T19:34:55.781Z,10.35
2022-12-03T19:37:29.663Z,17.08
2022-12-03T19:40:04.693Z,11.43
2022-12-03T19:42:38.878Z,11.05
2022-12-03T19:45:16.170Z,12.90
2022-12-03T19:47:55.114Z,10.77
2022-12-03T19:50:30.049Z,11.10
2022-12-03T19:53:03.853Z,14.40
2022-12-03T19:55:41.353Z,9.35
2022-12-03T19:58:14.557Z,10.93
2022-12-03T20:00:49.523Z,11.45
2022-12-03T20:03:24.550Z,9.98
2022-12-03T20:05:56.418Z,11.35
2022-12-03T20:08:31.529Z,12.35
2022-12-03T20:11:16.183Z,12.32
2022-12-03T20:13:56.285Z,12.37
2022-12-03T20:16:29.407Z,13.80
2022-12-03T20:19:00.037Z,11.93
2022-12-03T20:21:33.267Z,10.70
2022-12-03T20:24:01.499Z,13.55
2022-12-03T20:26:29.871Z,14.95
2022-12-03T20:28:59.024Z,13.00
2022-12-03T20:31:30.064Z,14.80
2022-12-03T20:34:00.623Z,16.20
2022-12-03T20:36:32.848Z,10.35
2022-12-03T20:39:03.281Z,16.23
2022-12-03T20:41:31.872Z,18.12
2022-12-03T20:43:59.670Z,17.35
2022-12-03T20:46:29.960Z,14.60
2022-12-03T20:48:59.172Z,13.98
2022-12-03T20:51:30.359Z,13.43
2022-12-03T20:54:00.414Z,15.30
2022-12-03T20:56:39.576Z,12.52
2022-12-03T20:59:11.264Z,13.88
2022-12-03T21:01:40.375Z,13.93
2022-12-03T21:04:10.225Z,15.30
2022-12-03T21:06:38.087Z,15.60
2022-12-03T21:09:07.447Z,13.18
2022-12-03T21:11:36.722Z,14.32
2022-12-03T21:14:05.307Z,14.35
2022-12-03T21:17:07.279Z,10.73
2022-12-03T21:19:27.966Z,13.10
2022-12-03T21:21:55.832Z,12.90
2022-12-03T21:24:23.732Z,13.85
2022-12-03T21:26:51.840Z,16.33
2022-12-03T21:29:19.648Z,17.02
2022-12-03T21:31:47.345Z,16.85
2022-12-03T21:34:15.670Z,14.23
2022-12-03T21:36:43.660Z,13.20
2022-12-03T21:39:11.554Z,14.05
2022-12-03T21:41:39.764Z,12.68
2022-12-03T21:44:07.633Z,18.55
2022-12-03T21:47:11.086Z,13.73
2022-12-03T21:49:24.100Z,14.60
2022-12-03T21:51:54.670Z,14.20
2022-12-03T21:54:22.549Z,13.48
2022-12-03T21:56:50.754Z,10.65
2022-12-03T21:59:18.665Z,12.32
2022-12-03T22:01:47.458Z,14.07
2022-12-03T22:04:15.886Z,14.27
2022-12-03T22:06:43.769Z,8.18
2022-12-03T22:09:11.641Z,12.90
2022-12-03T22:11:39.821Z,14.23
2022-12-03T22:14:08.846Z,11.25
2022-12-03T22:16:36.791Z,12.20
2022-12-03T22:19:08.014Z,13.52
2022-12-03T22:21:35.946Z,10.20
2022-12-03T22:24:03.852Z,10.82
2022-12-03T22:26:33.440Z,13.30
2022-12-03T22:29:03.070Z,13.93
2022-12-03T22:31:30.911Z,11.25
2022-12-03T22:33:59.155Z,12.10
2022-12-03T22:36:26.909Z,15.07
2022-12-03T22:38:54.780Z,12.13
2022-12-03T22:41:23.469Z,13.23
2022-12-03T22:43:51.260Z,13.32
2022-12-03T22:46:19.155Z,14.35
2022-12-03T22:48:47.936Z,11.57
2022-12-03T22:51:21.784Z,19.12
2022-12-03T22:54:01.380Z,12.82
2022-12-03T22:56:30.837Z,13.52
2022-12-03T22:58:59.381Z,10.25
2022-12-03T23:01:30.227Z,13.98
2022-12-03T23:03:58.801Z,14.95
2022-12-03T23:06:28.276Z,12.27
2022-12-03T23:08:56.977Z,13.90
2022-12-03T23:11:25.982Z,12.60
2022-12-03T23:13:55.103Z,13.20
2022-12-03T23:16:26.586Z,13.55
2022-12-03T23:18:54.934Z,13.00
2022-12-03T23:21:29.911Z,10.10
2022-12-03T23:24:03.897Z,15.80
2022-12-03T23:26:35.936Z,13.77
2022-12-03T23:29:06.305Z,13.77
2022-12-03T23:31:34.865Z,11.57
2022-12-03T23:34:03.056Z,15.70
2022-12-03T23:36:33.013Z,16.83
2022-12-03T23:39:00.841Z,11.25
2022-12-03T23:41:28.720Z,15.10
2022-12-03T23:43:57.388Z,11.10
2022-12-03T23:46:27.566Z,13.48
2022-12-03T23:48:55.646Z,12.75
2022-12-03T23:51:25.056Z,14.63
2022-12-03T23:53:54.419Z,12.80
2022-12-03T23:56:25.668Z,14.50
2022-12-03T23:58:53.915Z,13.65
